Time;durP1;ratioP1;P1;durP2;ratioP2;P2;SDS_P1;SDS_P2;PMS_P1;PMS_P2;Temp;Humidity;BMP_temperature;BMP_pressure;BME280_temperature;BME280_humidity;BME280_pressure;Samples;Min_cycle;Max_cycle;Signal;HPM_P1;HPM_P2
2023/06/20 00:00:15;;;;;;;17.40;12.63;;;18.90;99.90;;;;;;5014487;28;20092;-69
2023/06/20 00:02:41;;;;;;;17.98;13.32;;;18.80;99.90;;;;;;5014782;28;20498;-69
2023/06/20 00:05:06;;;;;;;18.27;13.32;;;18.80;99.90;;;;;;5014995;28;20048;-69
2023/06/20 00:07:33;;;;;;;20.55;12.25;;;18.80;99.90;;;;;;5013300;28;20112;-69
2023/06/20 00:09:59;;;;;;;16.58;12.88;;;18.80;99.90;;;;;;5014456;28;20038;-69
2023/06/20 00:12:24;;;;;;;17.60;13.23;;;18.80;99.90;;;;;;5014692;28;20041;-69
2023/06/20 00:14:50;;;;;;;19.02;12.88;;;18.70;99.90;;;;;;5014689;28;20034;-69
2023/06/20 00:17:15;;;;;;;18.17;12.90;;;18.80;99.90;;;;;;5014090;28;20034;-69
2023/06/20 00:19:41;;;;;;;21.65;13.35;;;18.70;99.90;;;;;;5014326;28;20050;-69
2023/06/20 00:22:07;;;;;;;22.08;13.48;;;18.70;99.90;;;;;;5014404;28;20046;-69
2023/06/20 00:24:33;;;;;;;21.17;14.00;;;18.50;99.90;;;;;;5014315;28;20069;-69
2023/06/20 00:27:02;;;;;;;16.95;12.80;;;18.50;99.90;;;;;;5014030;28;20041;-69
2023/06/20 00:29:28;;;;;;;21.00;12.90;;;18.50;99.90;;;;;;5013891;28;20077;-69
2023/06/20 00:31:53;;;;;;;19.23;11.40;;;18.30;99.90;;;;;;5014236;28;20033;-69
2023/06/20 00:34:19;;;;;;;14.60;10.73;;;18.30;99.90;;;;;;5014434;28;20049;-69
2023/06/20 00:36:45;;;;;;;14.70;10.88;;;18.20;99.90;;;;;;5014091;28;20041;-69
2023/06/20 00:39:10;;;;;;;13.90;10.57;;;18.10;99.90;;;;;;5013438;28;20045;-69
2023/06/20 00:41:36;;;;;;;13.45;10.07;;;18.10;99.90;;;;;;5014074;28;20038;-69
2023/06/20 00:44:04;;;;;;;13.25;10.18;;;18.10;99.90;;;;;;5013962;28;20084;-69
2023/06/20 00:46:34;;;;;;;13.70;9.63;;;18.10;99.90;;;;;;5013598;28;20060;-69
2023/06/20 00:49:03;;;;;;;16.35;9.70;;;18.20;99.90;;;;;;5012932;28;20575;-69
2023/06/20 00:51:29;;;;;;;15.30;9.15;;;18.10;99.90;;;;;;5012728;28;20473;-69
2023/06/20 00:53:56;;;;;;;15.48;9.35;;;18.10;99.90;;;;;;5013990;28;20113;-69
2023/06/20 00:56:25;;;;;;;12.77;8.55;;;18.10;99.90;;;;;;5013880;28;20065;-69
2023/06/20 00:58:50;;;;;;;13.73;8.30;;;18.00;99.90;;;;;;5013485;28;20116;-69
2023/06/20 01:01:19;;;;;;;13.40;9.00;;;18.10;99.90;;;;;;5013576;28;20116;-69
2023/06/20 01:03:48;;;;;;;12.50;9.27;;;18.00;99.90;;;;;;5013884;28;20041;-69
2023/06/20 01:06:33;;;;;;;13.73;8.68;;;17.90;99.90;;;;;;5013617;28;20572;-69
2023/06/20 01:09:28;;;;;;;12.05;8.05;;;17.90;99.90;;;;;;5013547;28;20037;-69
2023/06/20 01:12:29;;;;;;;12.63;9.43;;;18.10;99.90;;;;;;5013530;28;20045;-69
2023/06/20 01:15:00;;;;;;;12.25;9.50;;;17.90;99.90;;;;;;5013611;28;20436;-69
2023/06/20 01:17:47;;;;;;;14.18;8.65;;;17.90;99.90;;;;;;5013175;28;20037;-69
2023/06/20 01:20:24;;;;;;;11.35;9.00;;;17.90;99.90;;;;;;5013214;28;20061;-69
2023/06/20 01:22:57;;;;;;;19.02;10.38;;;17.80;99.90;;;;;;5013502;28;20038;-69
2023/06/20 01:25:37;;;;;;;;;;;17.90;99.90;;;;;;5013843;28;20053;-69
2023/06/20 01:28:25;;;;;;;14.55;9.45;;;17.90;99.90;;;;;;5012787;28;19921;-69
2023/06/20 01:31:03;;;;;;;14.98;9.52;;;17.70;99.90;;;;;;5012969;28;20037;-69
2023/06/20 01:33:34;;;;;;;16.85;8.98;;;17.80;99.90;;;;;;5013307;28;20045;-69
2023/06/20 01:36:01;;;;;;;14.85;9.77;;;17.90;99.90;;;;;;5013206;28;20041;-69
2023/06/20 01:38:30;;;;;;;12.93;9.13;;;17.90;99.90;;;;;;5012518;28;20059;-69
2023/06/20 01:40:58;;;;;;;13.90;10.02;;;17.80;99.90;;;;;;5012840;28;20049;-69
2023/06/20 01:43:25;;;;;;;14.30;9.55;;;17.90;99.90;;;;;;5013132;28;20045;-69
2023/06/20 01:45:53;;;;;;;13.90;9.15;;;17.80;99.90;;;;;;5012815;28;20502;-69
2023/06/20 01:48:22;;;;;;;15.82;9.85;;;17.80;99.90;;;;;;5012247;28;20466;-69
2023/06/20 01:50:49;;;;;;;14.65;10.30;;;17.80;99.90;;;;;;5012176;28;20046;-69
2023/06/20 01:53:15;;;;;;;13.55;9.60;;;17.80;99.90;;;;;;5012589;28;20112;-69
2023/06/20 01:55:41;;;;;;;14.05;9.40;;;17.80;99.90;;;;;;5012911;28;20046;-69
2023/06/20 01:58:09;;;;;;;15.00;9.95;;;17.80;99.90;;;;;;5012372;28;20052;-69
2023/06/20 02:00:36;;;;;;;13.10;9.15;;;17.80;99.90;;;;;;5011279;28;20050;-69
2023/06/20 02:03:03;;;;;;;18.10;9.85;;;17.80;99.90;;;;;;5012643;28;20049;-69
2023/06/20 02:05:31;;;;;;;19.67;12.43;;;17.80;99.90;;;;;;5012574;28;20048;-69
2023/06/20 02:07:59;;;;;;;15.95;9.45;;;17.90;99.90;;;;;;5012278;28;20041;-69
2023/06/20 02:10:27;;;;;;;16.15;11.20;;;17.70;99.90;;;;;;5012081;28;20042;-69
2023/06/20 02:12:54;;;;;;;14.95;10.48;;;17.80;99.90;;;;;;5011211;28;20050;-69
2023/06/20 02:15:23;;;;;;;16.90;10.65;;;17.80;99.90;;;;;;5012441;28;20068;-69
2023/06/20 02:17:48;;;;;;;17.23;10.55;;;17.80;99.90;;;;;;5012011;28;20417;-70
2023/06/20 02:20:14;;;;;;;14.55;10.30;;;17.80;99.90;;;;;;5011844;28;20044;-69
2023/06/20 02:22:44;;;;;;;15.25;11.57;;;17.70;99.90;;;;;;5012682;28;20037;-69
2023/06/20 02:25:16;;;;;;;17.73;11.00;;;17.80;99.90;;;;;;5012429;28;20049;-69
2023/06/20 02:27:42;;;;;;;16.00;11.38;;;17.80;99.90;;;;;;5011900;28;20045;-69
2023/06/20 02:30:10;;;;;;;18.55;12.15;;;17.70;99.90;;;;;;5011796;28;20034;-69
2023/06/20 02:32:39;;;;;;;17.73;11.55;;;17.70;99.90;;;;;;5012204;28;20066;-69
2023/06/20 02:35:06;;;;;;;17.90;11.85;;;17.70;99.90;;;;;;5011780;28;20498;-69
2023/06/20 02:37:34;;;;;;;16.25;12.20;;;17.80;99.90;;;;;;5011768;28;20133;-69
2023/06/20 02:40:00;;;;;;;17.08;12.10;;;17.70;99.90;;;;;;5011744;28;20464;-69
2023/06/20 02:42:26;;;;;;;18.00;11.85;;;17.70;99.90;;;;;;5012018;28;20042;-69
2023/06/20 02:44:51;;;;;;;18.00;11.82;;;17.60;99.90;;;;;;5011962;28;20092;-69
2023/06/20 02:47:39;;;;;;;22.17;13.75;;;17.70;99.90;;;;;;5011466;28;20056;-69
2023/06/20 02:50:18;;;;;;;19.90;13.25;;;17.60;99.90;;;;;;5011692;28;20096;-69
2023/06/20 02:52:49;;;;;;;18.10;12.25;;;17.60;99.90;;;;;;5012004;28;20133;-69
2023/06/20 02:55:35;;;;;;;17.25;12.63;;;17.70;99.90;;;;;;5011943;28;20064;-69
2023/06/20 02:58:04;;;;;;;19.90;14.10;;;17.50;99.90;;;;;;5011676;28;20084;-69
2023/06/20 03:00:31;;;;;;;21.23;14.95;;;17.70;99.90;;;;;;5011608;28;20568;-69
2023/06/20 03:03:08;;;;;;;19.85;13.57;;;17.60;99.90;;;;;;5011715;28;20081;-69
2023/06/20 03:05:36;;;;;;;19.67;13.52;;;17.50;99.90;;;;;;5011827;28;20066;-69
2023/06/20 03:08:04;;;;;;;22.90;15.52;;;17.50;99.90;;;;;;5011229;28;20490;-69
2023/06/20 03:10:31;;;;;;;23.10;14.93;;;17.50;99.90;;;;;;5010156;28;20108;-69
2023/06/20 03:12:58;;;;;;;22.85;14.63;;;17.50;99.90;;;;;;5014094;28;20120;-69
2023/06/20 03:15:23;;;;;;;20.20;14.02;;;17.60;99.90;;;;;;5015908;28;20037;-69
2023/06/20 03:17:49;;;;;;;20.15;14.35;;;17.60;99.90;;;;;;5015267;28;20048;-69
2023/06/20 03:20:15;;;;;;;20.50;14.25;;;17.50;99.90;;;;;;5015215;28;20030;-69
2023/06/20 03:22:40;;;;;;;22.15;14.77;;;17.50;99.90;;;;;;5015561;28;20553;-69
2023/06/20 03:25:06;;;;;;;23.63;14.55;;;17.60;99.90;;;;;;5015783;28;20046;-69
2023/06/20 03:27:32;;;;;;;21.55;13.98;;;17.50;99.90;;;;;;5015184;28;20116;-69
2023/06/20 03:30:02;;;;;;;19.67;14.48;;;17.50;99.90;;;;;;4996519;28;20274;-69
2023/06/20 03:32:28;;;;;;;20.88;14.95;;;17.50;99.90;;;;;;4974261;28;20053;-69
2023/06/20 03:34:54;;;;;;;19.70;13.63;;;17.50;99.90;;;;;;4973872;28;20141;-69
2023/06/20 03:37:19;;;;;;;20.13;14.60;;;17.40;99.90;;;;;;4973248;28;20503;-69
2023/06/20 03:39:45;;;;;;;20.27;13.48;;;17.50;99.90;;;;;;4972965;28;20050;-70
2023/06/20 03:42:10;;;;;;;20.30;14.77;;;17.60;99.90;;;;;;4972121;28;20987;-69
2023/06/20 03:44:36;;;;;;;24.83;14.95;;;17.50;99.90;;;;;;4974933;28;20041;-69
2023/06/20 03:47:02;;;;;;;22.65;15.20;;;17.60;99.90;;;;;;4973142;28;20037;-69
2023/06/20 03:49:27;;;;;;;20.48;13.77;;;17.40;99.90;;;;;;4973498;28;20818;-69
2023/06/20 03:51:53;;;;;;;24.25;14.32;;;17.50;99.90;;;;;;4972295;28;20799;-69
2023/06/20 03:54:21;;;;;;;20.55;13.60;;;17.60;99.90;;;;;;4973764;28;20251;-68
2023/06/20 03:56:46;;;;;;;17.08;12.70;;;17.40;99.90;;;;;;4973549;28;20041;-68
2023/06/20 03:59:14;;;;;;;19.17;12.25;;;17.50;99.90;;;;;;4973111;28;20044;-68
2023/06/20 04:01:40;;;;;;;20.60;14.18;;;17.70;99.90;;;;;;4973579;28;20045;-69
2023/06/20 04:04:05;;;;;;;19.70;13.75;;;17.70;99.90;;;;;;4973282;28;20080;-69
2023/06/20 04:06:31;;;;;;;18.75;13.45;;;17.60;99.90;;;;;;4973327;28;20215;-68
2023/06/20 04:09:00;;;;;;;16.02;12.82;;;17.60;99.90;;;;;;4972634;28;20153;-68
2023/06/20 04:11:26;;;;;;;19.95;13.02;;;17.70;99.90;;;;;;4973480;28;20042;-68
2023/06/20 04:13:51;;;;;;;17.95;13.35;;;17.70;99.90;;;;;;4973341;28;20053;-68
2023/06/20 04:16:17;;;;;;;16.23;12.70;;;17.80;99.90;;;;;;4973387;28;20315;-68
2023/06/20 04:18:43;;;;;;;18.13;11.90;;;17.70;99.90;;;;;;4972830;28;20108;-68
2023/06/20 04:21:08;;;;;;;19.88;12.93;;;17.70;99.90;;;;;;4973115;28;20861;-68
2023/06/20 04:23:34;;;;;;;17.88;12.68;;;17.80;99.90;;;;;;4972897;28;20284;-68
2023/06/20 04:26:00;;;;;;;15.75;12.48;;;17.80;99.90;;;;;;4972503;28;20096;-69
2023/06/20 04:28:25;;;;;;;21.58;12.65;;;17.90;99.90;;;;;;4972883;28;20042;-68
2023/06/20 04:30:53;;;;;;;16.38;12.43;;;17.70;99.90;;;;;;4973450;28;20908;-69
2023/06/20 04:33:19;;;;;;;17.42;11.07;;;17.80;99.90;;;;;;4973897;28;20588;-68
2023/06/20 04:35:44;;;;;;;16.08;12.00;;;17.90;99.90;;;;;;4973672;28;20037;-68
2023/06/20 04:38:10;;;;;;;15.38;11.48;;;17.90;99.90;;;;;;4973080;28;20204;-69
2023/06/20 04:40:36;;;;;;;14.30;10.63;;;17.90;99.90;;;;;;4973732;28;20944;-69
2023/06/20 04:43:03;;;;;;;15.55;12.00;;;17.90;99.90;;;;;;4973461;28;20038;-69
2023/06/20 04:45:30;;;;;;;15.95;11.25;;;17.90;99.90;;;;;;4973314;28;20046;-69
2023/06/20 04:47:56;;;;;;;14.50;10.52;;;17.90;99.90;;;;;;4972964;28;20203;-68
2023/06/20 04:50:23;;;;;;;14.90;10.18;;;18.00;99.90;;;;;;4973104;28;20038;-68
2023/06/20 04:52:48;;;;;;;16.50;11.70;;;18.00;99.90;;;;;;4973206;28;20156;-68
2023/06/20 04:55:14;;;;;;;17.10;11.50;;;18.00;99.90;;;;;;4973056;28;20034;-68
2023/06/20 04:57:40;;;;;;;21.52;12.00;;;18.10;99.90;;;;;;4972559;28;20042;-68
2023/06/20 05:00:12;;;;;;;15.10;10.45;;;18.10;99.90;;;;;;4973218;28;20038;-68
2023/06/20 05:02:42;;;;;;;14.75;10.63;;;18.20;99.90;;;;;;4972814;28;20203;-68
2023/06/20 05:05:08;;;;;;;15.25;11.23;;;18.30;99.90;;;;;;4972921;28;20038;-69
2023/06/20 05:07:34;;;;;;;14.05;9.85;;;18.30;99.90;;;;;;4972136;28;20631;-68
2023/06/20 05:10:00;;;;;;;16.50;10.25;;;18.40;99.90;;;;;;4972861;28;20140;-69
2023/06/20 05:12:25;;;;;;;16.10;11.52;;;18.40;99.90;;;;;;4972909;28;20056;-68
2023/06/20 05:14:51;;;;;;;15.10;10.88;;;18.40;99.90;;;;;;4972186;28;20524;-68
2023/06/20 05:17:17;;;;;;;15.70;10.82;;;18.50;99.90;;;;;;4973071;28;20038;-68
2023/06/20 05:19:42;;;;;;;16.88;10.57;;;18.50;99.90;;;;;;4972139;28;20034;-69
2023/06/20 05:22:08;;;;;;;14.10;10.85;;;18.60;99.90;;;;;;4971773;28;20159;-69
2023/06/20 05:24:34;;;;;;;17.40;10.43;;;18.60;99.90;;;;;;4971807;28;20877;-68
2023/06/20 05:26:59;;;;;;;18.13;10.05;;;18.60;99.90;;;;;;4972820;28;20768;-69
2023/06/20 05:29:25;;;;;;;13.43;9.93;;;18.60;99.90;;;;;;4971923;28;20060;-69
2023/06/20 05:31:51;;;;;;;21.17;11.57;;;18.70;99.90;;;;;;4971746;28;20034;-70
2023/06/20 05:34:16;;;;;;;14.05;10.73;;;18.80;99.90;;;;;;4971632;28;20248;-69
2023/06/20 05:36:42;;;;;;;14.02;10.27;;;18.90;99.90;;;;;;4971559;28;20034;-70
2023/06/20 05:39:09;;;;;;;14.82;11.15;;;18.90;99.90;;;;;;4971829;28;20069;-69
2023/06/20 05:41:35;;;;;;;16.95;11.57;;;18.90;99.90;;;;;;4972226;28;20050;-69
2023/06/20 05:44:02;;;;;;;15.75;11.10;;;19.00;99.90;;;;;;4972038;28;20041;-69
2023/06/20 05:46:27;;;;;;;18.73;10.80;;;19.00;99.90;;;;;;4972016;28;20127;-68
2023/06/20 05:48:53;;;;;;;15.98;11.30;;;19.00;99.90;;;;;;4971928;28;20397;-68
2023/06/20 05:51:19;;;;;;;18.70;11.68;;;19.00;99.90;;;;;;4971866;28;20069;-68
2023/06/20 05:53:44;;;;;;;16.98;11.32;;;19.00;99.90;;;;;;4971986;28;20442;-68
2023/06/20 05:56:10;;;;;;;18.88;11.40;;;19.10;99.90;;;;;;4971825;28;20200;-69
2023/06/20 05:58:36;;;;;;;20.10;11.90;;;19.20;99.90;;;;;;4972225;28;20103;-69
2023/06/20 06:01:03;;;;;;;16.20;12.05;;;19.20;99.90;;;;;;4969605;28;20041;-69
2023/06/20 06:03:32;;;;;;;15.55;11.13;;;19.20;99.90;;;;;;4971329;28;20056;-68
2023/06/20 06:05:58;;;;;;;15.10;10.52;;;19.20;99.90;;;;;;4971414;28;20216;-69
2023/06/20 06:08:25;;;;;;;17.52;12.60;;;19.30;99.90;;;;;;4970899;28;20976;-69
2023/06/20 06:10:52;;;;;;;17.98;11.07;;;19.40;99.90;;;;;;4971063;28;20044;-69
2023/06/20 06:13:18;;;;;;;14.07;11.27;;;19.50;99.90;;;;;;4970926;28;20965;-68
2023/06/20 06:15:43;;;;;;;16.55;11.30;;;19.50;99.90;;;;;;4971112;28;20030;-69
2023/06/20 06:18:09;;;;;;;23.55;10.32;;;19.60;99.90;;;;;;4970903;28;20945;-69
2023/06/20 06:20:35;;;;;;;15.90;11.32;;;19.70;99.90;;;;;;4971107;28;20038;-68
2023/06/20 06:23:02;;;;;;;18.10;11.70;;;19.70;99.90;;;;;;4972313;28;20042;-69
2023/06/20 06:25:28;;;;;;;16.30;12.70;;;19.70;99.90;;;;;;4971125;28;20038;-69
2023/06/20 06:27:53;;;;;;;13.88;10.70;;;19.90;99.90;;;;;;4970541;28;20042;-68
2023/06/20 06:30:19;;;;;;;15.43;10.93;;;19.90;99.90;;;;;;4970497;28;20041;-69
2023/06/20 06:32:47;;;;;;;14.55;10.98;;;20.00;99.90;;;;;;4970603;28;20881;-68
2023/06/20 06:35:16;;;;;;;17.20;11.70;;;19.90;99.90;;;;;;4970864;28;20053;-69
2023/06/20 06:37:42;;;;;;;18.17;12.45;;;20.00;99.90;;;;;;4969934;28;20048;-69
2023/06/20 06:40:11;;;;;;;20.55;12.63;;;20.20;99.90;;;;;;4970552;28;20286;-69
2023/06/20 06:42:37;;;;;;;18.25;10.60;;;20.20;99.90;;;;;;4970590;28;20038;-69
2023/06/20 06:45:03;;;;;;;17.38;11.40;;;20.40;99.90;;;;;;4970450;28;20347;-68
2023/06/20 06:47:29;;;;;;;17.38;11.88;;;20.50;99.90;;;;;;4968495;28;20658;-69
2023/06/20 06:49:54;;;;;;;18.13;11.70;;;20.50;99.90;;;;;;4971058;28;20050;-68
2023/06/20 06:52:20;;;;;;;15.40;11.90;;;20.60;99.90;;;;;;4970497;28;20246;-69
2023/06/20 06:54:45;;;;;;;15.90;10.75;;;20.70;99.90;;;;;;4971487;28;20212;-69
2023/06/20 06:57:11;;;;;;;14.18;12.05;;;20.70;99.90;;;;;;4969907;28;20608;-69
2023/06/20 06:59:37;;;;;;;19.80;12.50;;;20.90;99.90;;;;;;4970402;28;20096;-68
2023/06/20 07:02:05;;;;;;;16.15;11.18;;;20.90;99.90;;;;;;4970374;28;20491;-69
2023/06/20 07:04:31;;;;;;;15.88;11.88;;;21.00;99.90;;;;;;4970338;28;20201;-69
2023/06/20 07:06:57;;;;;;;14.20;10.75;;;21.10;99.90;;;;;;4969755;28;20636;-69
2023/06/20 07:09:22;;;;;;;19.33;11.00;;;21.20;99.90;;;;;;4970306;28;20085;-68
2023/06/20 07:11:48;;;;;;;14.38;11.38;;;21.30;99.90;;;;;;4970372;28;20042;-68
2023/06/20 07:14:13;;;;;;;20.70;11.60;;;21.40;99.90;;;;;;4970386;28;20038;-69
2023/06/20 07:16:39;;;;;;;15.43;10.82;;;21.50;99.90;;;;;;4969989;28;20415;-68
2023/06/20 07:19:05;;;;;;;15.25;11.27;;;21.60;99.90;;;;;;4968382;28;20045;-69
2023/06/20 07:21:30;;;;;;;16.40;10.20;;;21.80;99.90;;;;;;4970039;28;20298;-69
2023/06/20 07:23:56;;;;;;;16.33;10.88;;;21.90;99.90;;;;;;4970294;28;20278;-68
2023/06/20 07:26:21;;;;;;;15.40;11.57;;;22.00;99.90;;;;;;4970372;28;20341;-68
2023/06/20 07:28:47;;;;;;;16.13;11.57;;;22.10;99.90;;;;;;4969424;28;20834;-68
2023/06/20 07:31:20;;;;;;;11.43;9.95;;;22.20;99.90;;;;;;4970190;28;20056;-68
2023/06/20 07:33:46;;;;;;;12.70;10.02;;;22.40;99.90;;;;;;4970088;28;20042;-68
2023/06/20 07:36:12;;;;;;;17.17;11.18;;;22.60;99.90;;;;;;4969933;28;20123;-68
2023/06/20 07:38:38;;;;;;;14.75;11.20;;;22.60;99.90;;;;;;4969795;28;20267;-68
2023/06/20 07:41:04;;;;;;;12.93;10.88;;;22.60;99.90;;;;;;4969939;28;20885;-67
2023/06/20 07:43:29;;;;;;;12.98;10.43;;;22.60;99.90;;;;;;4970070;28;20282;-68
2023/06/20 07:45:55;;;;;;;13.32;9.95;;;22.60;99.90;;;;;;4970020;28;20156;-67
2023/06/20 07:48:26;;;;;;;11.82;10.32;;;22.70;99.90;;;;;;4969343;28;20108;-68
2023/06/20 07:50:52;;;;;;;13.05;10.32;;;22.70;99.90;;;;;;4969093;28;20615;-69
2023/06/20 07:53:18;;;;;;;16.50;9.88;;;22.80;99.90;;;;;;4966981;28;20034;-68
2023/06/20 07:55:44;;;;;;;16.85;11.23;;;22.90;99.90;;;;;;4969097;28;20235;-68
2023/06/20 07:58:09;;;;;;;12.23;10.10;;;23.00;99.90;;;;;;4971679;28;20046;-69
2023/06/20 08:00:35;;;;;;;16.65;11.02;;;22.90;99.90;;;;;;4973400;28;20046;-69
2023/06/20 08:03:01;;;;;;;13.43;11.13;;;22.90;99.90;;;;;;4973581;28;20511;-68
2023/06/20 08:05:26;;;;;;;17.23;12.63;;;22.70;99.90;;;;;;4973250;28;20042;-68
2023/06/20 08:07:52;;;;;;;14.93;10.95;;;22.60;99.90;;;;;;4972534;28;20600;-68
2023/06/20 08:10:18;;;;;;;14.00;11.38;;;22.50;99.90;;;;;;4973255;28;20144;-68
2023/06/20 08:12:43;;;;;;;14.40;11.57;;;22.40;99.90;;;;;;4973366;28;20231;-68
2023/06/20 08:15:09;;;;;;;13.23;10.93;;;22.30;99.90;;;;;;4972895;28;20231;-68
2023/06/20 08:17:35;;;;;;;16.65;10.90;;;22.30;99.90;;;;;;4974206;28;20038;-68
2023/06/20 08:20:01;;;;;;;15.30;10.40;;;22.30;99.90;;;;;;4973300;28;20034;-69
2023/06/20 08:22:26;;;;;;;15.15;12.32;;;22.30;99.90;;;;;;4972777;28;20069;-68
2023/06/20 08:24:52;;;;;;;16.52;11.25;;;22.30;99.90;;;;;;4972590;28;20145;-68
2023/06/20 08:27:18;;;;;;;15.05;11.77;;;22.20;99.90;;;;;;4972664;28;20042;-68
2023/06/20 08:29:43;;;;;;;15.23;10.68;;;22.30;99.90;;;;;;4974497;28;20311;-70
2023/06/20 08:32:09;;;;;;;14.95;11.10;;;22.10;99.90;;;;;;4973317;28;20201;-68
2023/06/20 08:34:35;;;;;;;17.40;12.65;;;22.20;99.90;;;;;;4972581;28;20041;-69
2023/06/20 08:37:00;;;;;;;17.30;12.10;;;22.10;99.90;;;;;;4972386;28;20042;-69
2023/06/20 08:39:26;;;;;;;13.57;11.43;;;22.10;99.90;;;;;;4972634;28;20371;-69
2023/06/20 08:41:52;;;;;;;15.50;11.75;;;22.20;99.90;;;;;;4972692;28;20041;-68
2023/06/20 08:44:17;;;;;;;16.95;12.32;;;22.30;99.90;;;;;;4972635;28;20208;-68
2023/06/20 08:46:45;;;;;;;16.70;12.15;;;22.10;99.90;;;;;;4972516;28;20046;-69
2023/06/20 08:49:14;;;;;;;14.93;11.43;;;22.10;99.90;;;;;;4971561;28;20584;-68
2023/06/20 08:51:43;;;;;;;15.32;11.32;;;22.20;99.90;;;;;;4972560;28;20037;-68
2023/06/20 08:54:13;;;;;;;18.85;11.57;;;22.20;99.90;;;;;;4972398;28;20061;-68
2023/06/20 08:56:39;;;;;;;15.07;12.45;;;22.20;99.90;;;;;;4972455;28;20271;-68
2023/06/20 08:59:05;;;;;;;20.95;12.75;;;22.30;99.90;;;;;;4971429;28;20809;-68
2023/06/20 09:01:35;;;;;;;15.43;12.38;;;22.30;99.90;;;;;;4972799;28;20346;-68
2023/06/20 09:04:01;;;;;;;16.83;12.32;;;22.20;99.90;;;;;;4972284;28;20077;-69
2023/06/20 09:06:37;;;;;;;13.45;11.98;;;22.40;99.90;;;;;;4972354;28;20056;-68
2023/06/20 09:09:17;;;;;;;12.75;10.77;;;22.40;99.90;;;;;;4972753;28;20042;-69
2023/06/20 09:11:58;;;;;;;13.02;10.88;;;22.50;99.90;;;;;;4972066;28;20045;-69
2023/06/20 09:14:27;;;;;;;13.27;11.55;;;22.70;99.90;;;;;;4972382;28;20099;-68
2023/06/20 09:16:54;;;;;;;13.15;10.80;;;22.80;99.90;;;;;;4971837;28;20569;-69
2023/06/20 09:19:20;;;;;;;16.10;10.63;;;22.90;99.90;;;;;;4972010;28;20294;-71
2023/06/20 09:21:45;;;;;;;13.00;9.68;;;23.10;99.90;;;;;;4972154;28;20108;-68
2023/06/20 09:24:18;;;;;;;11.30;9.60;;;23.30;99.90;;;;;;4972187;28;20042;-69
2023/06/20 09:26:44;;;;;;;15.82;10.75;;;23.40;99.90;;;;;;4972153;28;20052;-69
2023/06/20 09:29:13;;;;;;;18.50;12.05;;;23.40;99.90;;;;;;4969530;28;20046;-68
2023/06/20 09:31:48;;;;;;;14.27;12.02;;;23.40;99.90;;;;;;4971697;28;20042;-69
2023/06/20 09:34:18;;;;;;;13.27;11.18;;;23.60;99.90;;;;;;4971957;28;20034;-70
2023/06/20 09:36:45;;;;;;;12.68;9.18;;;23.80;99.90;;;;;;4971992;28;20038;-68
2023/06/20 09:39:21;;;;;;;14.18;10.93;;;24.00;99.90;;;;;;4971129;28;20574;-69
2023/06/20 09:41:49;;;;;;;14.02;9.98;;;24.20;99.90;;;;;;4971831;28;20042;-69
2023/06/20 09:44:19;;;;;;;12.70;9.77;;;24.40;99.90;;;;;;4971608;28;20603;-69
2023/06/20 09:46:45;;;;;;;11.55;9.70;;;24.50;99.90;;;;;;4971835;28;20442;-68
2023/06/20 09:49:12;;;;;;;10.95;8.55;;;24.50;99.90;;;;;;4970762;28;20614;-68
2023/06/20 09:51:46;;;;;;;11.57;8.40;;;24.60;99.90;;;;;;4972640;28;20183;-69
2023/06/20 09:54:15;;;;;;;9.60;8.25;;;24.90;99.90;;;;;;4971592;28;20046;-69
2023/06/20 09:56:50;;;;;;;11.32;8.23;;;25.10;99.90;;;;;;4971621;28;20065;-69
2023/06/20 09:59:16;;;;;;;10.57;8.43;;;25.30;99.90;;;;;;4971192;28;20873;-70
2023/06/20 10:01:42;;;;;;;9.05;8.10;;;25.30;99.90;;;;;;4971321;28;20034;-69
2023/06/20 10:04:08;;;;;;;11.32;9.43;;;25.30;99.90;;;;;;4971211;28;20042;-67
2023/06/20 10:06:37;;;;;;;12.02;8.05;;;25.30;99.90;;;;;;4971329;28;20084;-69
2023/06/20 10:09:06;;;;;;;9.20;7.55;;;25.30;99.90;;;;;;4970645;28;20243;-69
2023/06/20 10:11:32;;;;;;;9.25;7.35;;;25.30;99.90;;;;;;4971706;28;20247;-68
2023/06/20 10:13:58;;;;;;;12.07;9.73;;;25.50;99.90;;;;;;4970191;28;20042;-69
2023/06/20 10:16:28;;;;;;;11.30;8.52;;;25.60;99.90;;;;;;4969190;28;20100;-69
2023/06/20 10:18:53;;;;;;;10.00;8.50;;;25.70;99.90;;;;;;4969189;28;20044;-68
2023/06/20 10:21:57;;;;;;;11.27;9.45;;;25.70;99.90;;;;;;4969196;28;20038;-69
2023/06/20 10:24:27;;;;;;;;;;;25.80;99.90;;;;;;4971823;28;20213;-68
2023/06/20 10:27:03;;;;;;;9.15;8.18;;;25.90;99.40;;;;;;4971157;28;19928;-69
2023/06/20 10:29:29;;;;;;;8.55;6.88;;;26.00;98.50;;;;;;4969897;28;20044;-70
2023/06/20 10:32:04;;;;;;;12.23;8.05;;;26.00;98.60;;;;;;4971316;28;20050;-69
2023/06/20 10:34:34;;;;;;;11.15;9.07;;;26.10;98.40;;;;;;4971292;28;20087;-69
2023/06/20 10:37:20;;;;;;;11.38;8.52;;;26.10;98.20;;;;;;4971023;28;20034;-69
2023/06/20 10:39:56;;;;;;;14.48;9.20;;;26.20;98.70;;;;;;4970952;28;20604;-69
2023/06/20 10:42:40;;;;;;;9.88;8.85;;;26.30;97.80;;;;;;4970243;28;20807;-69
2023/06/20 10:45:22;;;;;;;10.95;8.45;;;26.20;98.10;;;;;;4971665;28;20889;-69
2023/06/20 10:47:49;;;;;;;13.77;9.85;;;26.40;97.90;;;;;;4970842;28;20068;-69
2023/06/20 10:50:15;;;;;;;10.40;8.30;;;26.30;97.80;;;;;;4971013;28;20034;-70
2023/06/20 10:52:41;;;;;;;11.02;8.50;;;26.40;97.90;;;;;;4971019;28;20319;-69
2023/06/20 10:55:14;;;;;;;11.27;7.97;;;26.50;97.80;;;;;;4971013;28;20034;-70
2023/06/20 10:57:47;;;;;;;11.52;9.05;;;26.60;97.20;;;;;;4970561;28;20096;-69
2023/06/20 11:00:17;;;;;;;10.98;8.98;;;26.60;97.00;;;;;;4970675;28;20051;-69
2023/06/20 11:02:50;;;;;;;10.45;7.90;;;26.50;97.10;;;;;;4968908;28;20861;-71
2023/06/20 11:05:17;;;;;;;10.50;9.20;;;26.50;97.50;;;;;;4969490;28;20073;-69
2023/06/20 11:07:54;;;;;;;10.88;9.20;;;26.60;97.50;;;;;;4969853;28;20160;-69
2023/06/20 11:10:27;;;;;;;9.30;8.38;;;26.60;97.60;;;;;;4970547;28;20054;-70
2023/06/20 11:12:53;;;;;;;10.35;8.63;;;26.70;97.40;;;;;;4970258;28;20038;-69
2023/06/20 11:15:20;;;;;;;10.63;9.32;;;26.80;97.60;;;;;;4970161;28;20096;-69
2023/06/20 11:17:46;;;;;;;10.23;8.65;;;26.80;97.00;;;;;;4970037;28;20296;-69
2023/06/20 11:20:11;;;;;;;8.27;7.38;;;26.70;96.90;;;;;;4970189;28;20900;-69
2023/06/20 11:22:37;;;;;;;8.02;7.20;;;26.80;96.90;;;;;;4970109;28;20077;-69
2023/06/20 11:25:04;;;;;;;10.60;7.38;;;26.80;96.50;;;;;;4969112;28;20853;-70
2023/06/20 11:27:29;;;;;;;10.50;7.97;;;26.90;96.10;;;;;;4970197;28;20041;-69
2023/06/20 11:29:55;;;;;;;8.95;7.13;;;26.90;95.90;;;;;;4970305;28;20076;-69
2023/06/20 11:32:21;;;;;;;8.90;7.15;;;26.90;95.90;;;;;;4971105;28;20977;-69
2023/06/20 11:34:54;;;;;;;9.52;7.50;;;26.90;96.00;;;;;;4974312;28;20403;-69
2023/06/20 11:37:25;;;;;;;14.13;8.23;;;27.10;95.70;;;;;;4971583;28;20160;-71
2023/06/20 11:39:52;;;;;;;7.68;6.97;;;27.30;95.60;;;;;;4974703;28;20112;-69
2023/06/20 11:42:19;;;;;;;7.90;6.82;;;27.50;95.00;;;;;;4974158;28;20149;-69
2023/06/20 11:44:44;;;;;;;11.50;7.50;;;27.60;94.50;;;;;;4973650;28;20192;-71
2023/06/20 11:47:10;;;;;;;9.57;7.63;;;27.60;94.00;;;;;;4974035;28;20290;-70
2023/06/20 11:49:41;;;;;;;9.90;7.55;;;27.50;94.20;;;;;;4974404;28;20053;-70
2023/06/20 11:52:08;;;;;;;9.00;7.43;;;27.60;94.20;;;;;;4974292;28;20232;-70
2023/06/20 11:54:48;;;;;;;7.88;6.93;;;27.80;94.30;;;;;;4974480;28;20048;-70
2023/06/20 11:57:24;;;;;;;10.30;7.03;;;27.70;93.60;;;;;;4973973;28;20136;-69
2023/06/20 11:59:50;;;;;;;7.50;6.50;;;27.50;93.40;;;;;;4974190;28;20100;-69
2023/06/20 12:02:15;;;;;;;8.63;7.15;;;27.50;94.10;;;;;;4974039;28;20537;-69
2023/06/20 12:04:43;;;;;;;8.25;7.35;;;27.60;94.40;;;;;;4974150;28;20846;-69
2023/06/20 12:07:08;;;;;;;8.18;7.28;;;27.70;93.80;;;;;;4973150;28;20614;-68
2023/06/20 12:09:44;;;;;;;6.63;6.03;;;27.80;93.60;;;;;;4974072;28;20037;-69
2023/06/20 12:12:09;;;;;;;6.95;5.78;;;27.80;92.70;;;;;;4969244;28;20232;-69
2023/06/20 12:14:37;;;;;;;9.43;5.78;;;27.70;92.40;;;;;;4952407;28;20157;-70
2023/06/20 12:17:03;;;;;;;9.40;6.63;;;27.50;92.40;;;;;;4953026;28;20042;-70
2023/06/20 12:19:29;;;;;;;6.57;5.47;;;27.50;92.50;;;;;;4953971;28;20457;-69
2023/06/20 12:21:55;;;;;;;5.63;5.03;;;27.70;91.30;;;;;;4953874;28;20883;-69
2023/06/20 12:24:27;;;;;;;6.35;4.88;;;27.80;90.30;;;;;;4955121;28;20069;-69
2023/06/20 12:26:53;;;;;;;9.00;5.43;;;27.90;90.60;;;;;;4953562;28;20053;-71
2023/06/20 12:29:19;;;;;;;12.38;5.53;;;28.00;90.00;;;;;;4953849;28;20046;-70
2023/06/20 12:31:45;;;;;;;5.38;4.88;;;28.10;88.00;;;;;;4953781;28;20073;-71
2023/06/20 12:34:10;;;;;;;5.40;4.63;;;28.10;86.90;;;;;;4954374;28;20046;-70
2023/06/20 12:36:36;;;;;;;5.25;4.75;;;28.20;86.50;;;;;;4953280;28;20037;-70